createdAt,value
2023-04-09T00:00:37.131Z,17.80
2023-04-09T00:03:03.610Z,17.13
2023-04-09T00:05:30.226Z,17.00
2023-04-09T00:07:56.659Z,16.33
2023-04-09T00:10:23.032Z,14.50
2023-04-09T00:12:49.448Z,16.77
2023-04-09T00:15:27.814Z,16.38
2023-04-09T00:17:56.878Z,14.43
2023-04-09T00:20:23.332Z,14.60
2023-04-09T00:22:49.819Z,13.43
2023-04-09T00:25:16.196Z,14.48
2023-04-09T00:27:42.601Z,15.60
2023-04-09T00:30:08.976Z,17.08
2023-04-09T00:32:35.510Z,15.23
2023-04-09T00:35:01.999Z,17.15
2023-04-09T00:37:28.417Z,14.93
2023-04-09T00:39:54.789Z,17.63
2023-04-09T00:42:21.206Z,17.42
2023-04-09T00:44:47.592Z,21.63
2023-04-09T00:47:13.951Z,20.25
2023-04-09T00:49:40.330Z,18.10
2023-04-09T00:52:06.770Z,19.63
2023-04-09T00:54:33.245Z,16.83
2023-04-09T00:56:59.653Z,18.58
2023-04-09T00:59:26.100Z,16.38
2023-04-09T01:01:52.564Z,16.02
2023-04-09T01:04:18.992Z,17.30
2023-04-09T01:06:45.367Z,17.40
2023-04-09T01:09:11.823Z,15.55
2023-04-09T01:11:38.300Z,20.02
2023-04-09T01:14:04.689Z,18.08
2023-04-09T01:16:31.111Z,18.55
2023-04-09T01:18:57.594Z,19.25
2023-04-09T01:21:23.961Z,19.58
2023-04-09T01:23:50.397Z,20.50
2023-04-09T01:26:16.821Z,21.42
2023-04-09T01:28:43.203Z,21.60
2023-04-09T01:31:11.936Z,20.50
2023-04-09T01:33:38.486Z,21.17
2023-04-09T01:36:04.995Z,21.58
2023-04-09T01:38:31.390Z,20.35
2023-04-09T01:40:57.808Z,19.27
2023-04-09T01:43:24.269Z,20.20
2023-04-09T01:45:50.764Z,17.15
2023-04-09T01:48:17.185Z,17.85
2023-04-09T01:50:43.631Z,20.88
2023-04-09T01:53:10.008Z,21.23
2023-04-09T01:55:36.449Z,21.45
2023-04-09T01:58:02.913Z,20.25
2023-04-09T02:00:29.297Z,23.05
2023-04-09T02:02:55.902Z,24.08
2023-04-09T02:05:22.462Z,22.63
2023-04-09T02:07:48.922Z,22.23
2023-04-09T02:10:15.323Z,23.10
2023-04-09T02:12:41.713Z,22.58
2023-04-09T02:15:08.147Z,22.83
2023-04-09T02:17:34.640Z,22.67
2023-04-09T02:20:01.121Z,25.92
2023-04-09T02:22:27.537Z,26.27
2023-04-09T02:24:53.982Z,24.67
2023-04-09T02:27:20.456Z,23.10
2023-04-09T02:29:46.885Z,20.98
2023-04-09T02:32:13.276Z,22.17
2023-04-09T02:34:39.658Z,24.33
2023-04-09T02:37:06.095Z,26.58
2023-04-09T02:39:32.575Z,24.58
2023-04-09T02:41:59.011Z,22.90
2023-04-09T02:44:25.466Z,21.08
2023-04-09T02:46:51.935Z,22.88
2023-04-09T02:49:18.352Z,17.67
2023-04-09T02:51:44.773Z,14.88
2023-04-09T02:54:11.182Z,18.85
2023-04-09T02:56:37.553Z,17.30
2023-04-09T02:59:03.943Z,18.23
2023-04-09T03:01:30.403Z,19.65
2023-04-09T03:03:56.932Z,17.30
2023-04-09T03:06:23.413Z,16.20
2023-04-09T03:08:50.096Z,16.60
2023-04-09T03:11:16.783Z,16.45
2023-04-09T03:13:43.170Z,16.27
2023-04-09T03:16:09.545Z,17.50
2023-04-09T03:18:35.962Z,16.88
2023-04-09T03:21:02.348Z,15.20
2023-04-09T03:23:28.762Z,15.98
2023-04-09T03:25:55.162Z,14.32
2023-04-09T03:28:21.532Z,14.80
2023-04-09T03:30:47.956Z,14.40
2023-04-09T03:33:14.428Z,17.10
2023-04-09T03:35:40.839Z,15.05
2023-04-09T03:38:07.239Z,14.50
2023-04-09T03:40:33.853Z,17.15
2023-04-09T03:43:00.286Z,15.98
2023-04-09T03:45:26.662Z,15.63
2023-04-09T03:47:53.057Z,15.70
2023-04-09T03:50:19.498Z,17.77
2023-04-09T03:52:45.882Z,20.05
2023-04-09T03:55:12.259Z,16.33
2023-04-09T03:57:38.640Z,16.25
2023-04-09T04:00:05.072Z,17.45
2023-04-09T04:02:31.615Z,14.85
2023-04-09T04:04:58.058Z,15.55
2023-04-09T04:07:24.486Z,15.07
2023-04-09T04:09:50.917Z,14.63
2023-04-09T04:12:17.349Z,14.65
2023-04-09T04:14:43.782Z,15.45
2023-04-09T04:17:10.179Z,16.40
2023-04-09T04:19:36.553Z,15.02
2023-04-09T04:22:03.053Z,15.35
2023-04-09T04:24:29.428Z,16.83
2023-04-09T04:26:55.812Z,18.65
2023-04-09T04:29:22.175Z,17.52
2023-04-09T04:31:48.594Z,17.65
2023-04-09T04:34:15.088Z,20.65
2023-04-09T04:36:41.542Z,18.92
2023-04-09T04:39:07.958Z,18.25
2023-04-09T04:41:34.411Z,21.88
2023-04-09T04:44:00.901Z,18.95
2023-04-09T04:46:27.334Z,21.73
2023-04-09T04:48:57.436Z,21.40
2023-04-09T04:51:23.864Z,19.70
2023-04-09T04:53:50.256Z,19.38
2023-04-09T04:56:16.707Z,20.95
2023-04-09T04:58:43.165Z,22.10
2023-04-09T05:01:09.605Z,20.08
2023-04-09T05:03:36.082Z,19.13
2023-04-09T05:06:02.615Z,20.63
2023-04-09T05:08:29.077Z,18.13
2023-04-09T05:10:55.492Z,19.33
2023-04-09T05:13:21.902Z,17.92
2023-04-09T05:15:48.261Z,19.00
2023-04-09T05:18:14.766Z,20.15
2023-04-09T05:20:41.144Z,19.13
2023-04-09T05:23:07.521Z,20.35
2023-04-09T05:25:33.921Z,20.23
2023-04-09T05:28:00.375Z,21.90
2023-04-09T05:30:26.836Z,17.50
2023-04-09T05:32:53.435Z,23.83
2023-04-09T05:35:19.919Z,23.50
2023-04-09T05:37:46.352Z,23.17
2023-04-09T05:40:12.821Z,21.58
2023-04-09T05:42:39.256Z,21.73
2023-04-09T05:45:05.723Z,20.92
2023-04-09T05:47:32.125Z,18.63
2023-04-09T05:49:58.509Z,18.90
2023-04-09T05:52:24.878Z,21.77
2023-04-09T05:54:51.270Z,23.00
2023-04-09T05:57:17.705Z,21.20
2023-04-09T05:59:44.081Z,20.50
2023-04-09T06:02:10.625Z,20.25
2023-04-09T06:04:37.100Z,18.88
2023-04-09T06:07:03.528Z,21.80
2023-04-09T06:09:29.992Z,23.45
2023-04-09T06:11:56.382Z,19.27
2023-04-09T06:14:22.813Z,20.23
2023-04-09T06:16:49.253Z,21.50
2023-04-09T06:19:15.658Z,20.40
2023-04-09T06:21:42.102Z,19.50
2023-04-09T06:24:08.513Z,19.08
2023-04-09T06:26:34.938Z,23.75
2023-04-09T06:29:01.408Z,19.30
2023-04-09T06:31:27.808Z,21.55
2023-04-09T06:33:54.551Z,21.65
2023-04-09T06:36:21.460Z,20.58
2023-04-09T06:38:47.923Z,22.80
2023-04-09T06:41:14.393Z,19.35
2023-04-09T06:43:40.821Z,22.50
2023-04-09T06:46:07.328Z,26.42
2023-04-09T06:48:33.754Z,27.08
2023-04-09T06:51:00.214Z,22.90
2023-04-09T06:53:26.698Z,25.58
2023-04-09T06:55:54.431Z,25.45
2023-04-09T06:58:21.943Z,24.35
2023-04-09T07:00:48.323Z,22.73
2023-04-09T07:03:14.903Z,23.60
2023-04-09T07:05:41.373Z,21.38
2023-04-09T07:08:07.785Z,22.00
2023-04-09T07:10:34.338Z,26.48
2023-04-09T07:13:00.769Z,24.17
2023-04-09T07:15:27.237Z,24.85
2023-04-09T07:17:53.739Z,24.60
2023-04-09T07:20:20.181Z,21.42
2023-04-09T07:22:46.651Z,23.38
2023-04-09T07:25:13.093Z,20.52
2023-04-09T07:27:39.492Z,22.30
2023-04-09T07:30:05.957Z,20.77
2023-04-09T07:32:32.505Z,23.73
2023-04-09T07:34:58.953Z,24.83
2023-04-09T07:37:25.341Z,23.33
2023-04-09T07:39:51.801Z,23.95
2023-04-09T07:42:18.237Z,23.35
2023-04-09T07:44:44.670Z,23.70
2023-04-09T07:47:11.054Z,24.40
2023-04-09T07:49:37.442Z,20.95
2023-04-09T07:52:03.930Z,24.23
2023-04-09T07:54:30.378Z,25.52
2023-04-09T07:56:56.774Z,23.10
2023-04-09T07:59:23.216Z,23.30
2023-04-09T08:01:49.709Z,25.35
2023-04-09T08:04:16.291Z,24.88
2023-04-09T08:06:42.793Z,23.10
2023-04-09T08:09:09.170Z,25.35
2023-04-09T08:11:35.536Z,21.38
2023-04-09T08:14:01.936Z,20.45
2023-04-09T08:16:28.372Z,23.52
2023-04-09T08:18:55.067Z,22.45
2023-04-09T08:21:21.757Z,21.45
2023-04-09T08:23:48.226Z,20.95
2023-04-09T08:26:14.628Z,22.23
2023-04-09T08:28:41.009Z,21.65
2023-04-09T08:31:07.454Z,18.73
2023-04-09T08:33:33.881Z,20.92
2023-04-09T08:36:02.696Z,20.02
2023-04-09T08:38:29.713Z,21.88
2023-04-09T08:40:56.106Z,20.20
2023-04-09T08:43:23.632Z,21.00
2023-04-09T08:45:51.410Z,20.88
2023-04-09T08:48:17.945Z,19.38
2023-04-09T08:50:44.432Z,22.50
2023-04-09T08:53:10.818Z,23.75
2023-04-09T08:55:37.294Z,21.77
2023-04-09T08:58:03.736Z,19.38
2023-04-09T09:00:30.130Z,19.98
2023-04-09T09:02:56.674Z,18.98
2023-04-09T09:05:23.198Z,19.15
2023-04-09T09:07:49.635Z,17.65
2023-04-09T09:10:16.052Z,17.05
2023-04-09T09:12:42.460Z,16.17
2023-04-09T09:15:08.901Z,17.70
2023-04-09T09:17:35.299Z,17.17
2023-04-09T09:20:01.699Z,15.32
2023-04-09T09:22:28.116Z,13.70
2023-04-09T09:24:54.536Z,13.15
2023-04-09T09:27:21.066Z,13.90
2023-04-09T09:29:47.425Z,13.90
2023-04-09T09:32:13.832Z,12.77
2023-04-09T09:34:40.293Z,14.05
2023-04-09T09:37:07.337Z,12.88
2023-04-09T09:39:34.469Z,12.68
2023-04-09T09:42:00.878Z,17.00
2023-04-09T09:44:27.338Z,14.65
2023-04-09T09:46:53.781Z,14.48
2023-04-09T09:49:20.193Z,12.82
2023-04-09T09:51:46.617Z,14.23
2023-04-09T09:54:13.116Z,14.57
2023-04-09T09:56:39.685Z,12.02
2023-04-09T09:59:06.147Z,13.52
2023-04-09T10:01:32.600Z,12.52
2023-04-09T10:03:59.209Z,9.93
2023-04-09T10:06:25.641Z,12.63
2023-04-09T10:08:52.273Z,10.05
2023-04-09T10:11:18.807Z,10.57
2023-04-09T10:13:45.190Z,12.50
2023-04-09T10:16:11.626Z,12.23
2023-04-09T10:18:38.059Z,12.38
2023-04-09T10:21:04.491Z,11.77
2023-04-09T10:23:30.879Z,10.15
2023-04-09T10:25:57.273Z,12.02
2023-04-09T10:28:23.709Z,10.70
2023-04-09T10:30:50.098Z,12.07
2023-04-09T10:33:16.549Z,10.85
2023-04-09T10:35:42.970Z,9.85
2023-04-09T10:38:09.383Z,11.30
2023-04-09T10:40:35.815Z,10.57
2023-04-09T10:43:02.247Z,10.85
2023-04-09T10:45:28.928Z,9.30
2023-04-09T10:47:55.399Z,8.40
2023-04-09T10:50:21.797Z,9.68
2023-04-09T10:52:50.635Z,8.88
2023-04-09T10:55:17.028Z,8.18
2023-04-09T10:57:43.401Z,8.20
2023-04-09T11:00:09.852Z,8.43
2023-04-09T11:02:36.318Z,10.80
2023-04-09T11:05:02.919Z,8.52
2023-04-09T11:07:29.337Z,8.82
2023-04-09T11:09:55.735Z,8.55
2023-04-09T11:12:22.162Z,10.27
2023-04-09T11:14:48.602Z,8.27
2023-04-09T11:17:15.069Z,8.32
2023-04-09T11:19:41.457Z,8.45
2023-04-09T11:22:07.903Z,7.00
2023-04-09T11:24:34.320Z,8.85
2023-04-09T11:27:00.755Z,8.32
2023-04-09T11:29:27.171Z,6.63
2023-04-09T11:31:53.701Z,7.40
2023-04-09T11:34:20.162Z,8.23
2023-04-09T11:36:46.617Z,8.60
2023-04-09T11:39:13.074Z,7.40
2023-04-09T11:41:39.533Z,7.10
2023-04-09T11:44:05.906Z,8.27
2023-04-09T11:46:32.374Z,6.10
2023-04-09T11:48:58.862Z,5.43
2023-04-09T11:51:25.273Z,6.50
2023-04-09T11:53:51.725Z,8.07
2023-04-09T11:56:18.181Z,6.22
2023-04-09T11:58:44.629Z,8.68
2023-04-09T12:01:11.051Z,8.30
2023-04-09T12:03:37.688Z,7.72
2023-04-09T12:06:04.317Z,7.78
2023-04-09T12:08:30.744Z,7.35
2023-04-09T12:10:57.217Z,7.07
2023-04-09T12:13:23.689Z,7.50
2023-04-09T12:15:50.221Z,8.18
2023-04-09T12:18:16.826Z,8.13
2023-04-09T12:20:43.204Z,8.13
2023-04-09T12:23:09.637Z,7.35
2023-04-09T12:25:36.106Z,7.18
2023-04-09T12:28:02.559Z,7.88
2023-04-09T12:30:28.976Z,7.18
2023-04-09T12:32:55.471Z,7.57
2023-04-09T12:35:21.980Z,7.68
2023-04-09T12:37:48.569Z,5.90
2023-04-09T12:40:15.028Z,8.18
2023-04-09T12:42:41.488Z,7.95
2023-04-09T12:45:07.905Z,7.90
2023-04-09T12:47:34.354Z,8.15
2023-04-09T12:50:00.821Z,7.07
2023-04-09T12:52:27.224Z,7.03
2023-04-09T12:54:53.631Z,8.30
2023-04-09T12:57:20.058Z,7.60
2023-04-09T12:59:46.501Z,7.40
2023-04-09T13:02:13.144Z,7.30
2023-04-09T13:04:39.782Z,7.78
2023-04-09T13:07:06.526Z,7.05
2023-04-09T13:09:32.996Z,7.22
2023-04-09T13:11:59.427Z,8.20
2023-04-09T13:14:25.835Z,7.95
2023-04-09T13:16:52.249Z,6.13
2023-04-09T13:19:18.704Z,4.82
2023-04-09T13:21:45.084Z,5.65
2023-04-09T13:24:11.457Z,6.95
2023-04-09T13:26:37.843Z,7.38
2023-04-09T13:29:04.281Z,8.18
2023-04-09T13:31:30.684Z,7.47
2023-04-09T13:33:57.134Z,7.60
2023-04-09T13:36:23.589Z,7.20
2023-04-09T13:38:50.100Z,7.53
2023-04-09T13:41:16.607Z,8.02
2023-04-09T13:43:43.078Z,7.43
2023-04-09T13:46:09.615Z,6.90
2023-04-09T13:48:36.031Z,6.53
2023-04-09T13:51:02.432Z,5.80
2023-04-09T13:53:28.816Z,6.68
2023-04-09T13:55:55.191Z,6.55
2023-04-09T13:58:21.633Z,7.22
2023-04-09T14:00:48.010Z,6.55
2023-04-09T14:03:14.680Z,7.28
2023-04-09T14:05:41.362Z,7.60
2023-04-09T14:08:07.802Z,7.78
2023-04-09T14:10:34.273Z,6.60
2023-04-09T14:13:00.684Z,9.10
2023-04-09T14:15:27.133Z,7.10
2023-04-09T14:17:53.561Z,6.35
2023-04-09T14:20:19.986Z,5.78
2023-04-09T14:22:46.423Z,7.07
2023-04-09T14:25:12.875Z,9.73
2023-04-09T14:27:39.311Z,6.82
2023-04-09T14:30:05.810Z,6.47
2023-04-09T14:32:32.211Z,7.30
2023-04-09T14:34:58.688Z,7.38
2023-04-09T14:37:25.197Z,7.03
2023-04-09T14:39:51.598Z,6.47
2023-04-09T14:42:18.031Z,7.68
2023-04-09T14:44:44.402Z,7.95
2023-04-09T14:47:10.823Z,7.93
2023-04-09T14:49:37.257Z,6.57
2023-04-09T14:52:03.713Z,8.02
2023-04-09T14:54:30.139Z,6.50
2023-04-09T14:56:56.542Z,7.55
2023-04-09T14:59:23.006Z,5.97
2023-04-09T15:01:49.484Z,5.90
2023-04-09T15:04:15.958Z,6.57
2023-04-09T15:06:42.492Z,6.60
2023-04-09T15:09:08.941Z,6.40
2023-04-09T15:11:35.323Z,8.07
2023-04-09T15:14:01.710Z,7.47
2023-04-09T15:16:28.183Z,6.65
2023-04-09T15:18:54.964Z,6.32
2023-04-09T15:21:21.625Z,6.90
2023-04-09T15:23:48.101Z,6.47
2023-04-09T15:26:14.573Z,7.25
2023-04-09T15:28:41.031Z,6.90
2023-04-09T15:31:07.516Z,6.45
2023-04-09T15:33:33.955Z,6.93
2023-04-09T15:36:00.406Z,7.50
2023-04-09T15:38:26.890Z,6.20
2023-04-09T15:40:53.267Z,6.70
2023-04-09T15:43:19.686Z,6.57
2023-04-09T15:45:46.107Z,5.63
2023-04-09T15:48:12.630Z,5.50
2023-04-09T15:50:39.113Z,7.18
2023-04-09T15:53:05.548Z,7.45
2023-04-09T15:55:32.009Z,6.72
2023-04-09T15:57:58.467Z,8.43
2023-04-09T16:00:24.913Z,6.47
2023-04-09T16:02:51.358Z,6.35
2023-04-09T16:05:17.789Z,5.18
2023-04-09T16:07:44.179Z,6.75
2023-04-09T16:10:10.553Z,7.32
2023-04-09T16:12:36.936Z,5.78
2023-04-09T16:15:03.410Z,6.05
2023-04-09T16:17:30.767Z,5.93
2023-04-09T16:19:57.341Z,6.55
2023-04-09T16:22:23.781Z,7.93
2023-04-09T16:24:50.193Z,7.43
2023-04-09T16:27:16.638Z,6.85
2023-04-09T16:29:43.126Z,5.72
2023-04-09T16:32:09.735Z,6.32
2023-04-09T16:34:36.169Z,6.10
2023-04-09T16:37:02.621Z,5.75
2023-04-09T16:39:29.053Z,6.07
2023-04-09T16:41:55.455Z,5.68
2023-04-09T16:44:21.876Z,6.55
2023-04-09T16:46:48.376Z,6.38
2023-04-09T16:49:14.858Z,6.47
2023-04-09T16:51:41.324Z,6.78
2023-04-09T16:54:07.733Z,6.05
2023-04-09T16:56:34.165Z,7.05
2023-04-09T16:59:00.580Z,6.82
2023-04-09T17:01:27.141Z,6.13
2023-04-09T17:03:53.567Z,6.78
2023-04-09T17:06:20.067Z,6.03
2023-04-09T17:08:46.447Z,7.07
2023-04-09T17:11:13.160Z,7.60
2023-04-09T17:13:39.750Z,7.22
2023-04-09T17:16:06.388Z,6.45
2023-04-09T17:18:32.845Z,7.53
2023-04-09T17:20:59.316Z,7.75
2023-04-09T17:23:25.740Z,7.57
2023-04-09T17:25:52.106Z,7.10
2023-04-09T17:28:19.129Z,8.35
2023-04-09T17:30:45.621Z,7.20
2023-04-09T17:33:12.126Z,7.65
2023-04-09T17:35:38.726Z,6.25
2023-04-09T17:38:05.225Z,7.03
2023-04-09T17:40:31.675Z,6.90
2023-04-09T17:42:58.070Z,7.03
2023-04-09T17:45:24.513Z,7.25
2023-04-09T17:47:50.986Z,6.95
2023-04-09T17:50:17.589Z,6.85
2023-04-09T17:52:44.035Z,6.28
2023-04-09T17:55:10.485Z,6.13
2023-04-09T17:57:36.911Z,7.20
2023-04-09T18:00:03.369Z,6.90
2023-04-09T18:02:29.996Z,7.13
2023-04-09T18:04:56.853Z,6.85
2023-04-09T18:07:23.362Z,10.23
2023-04-09T18:09:49.787Z,8.43
2023-04-09T18:12:16.247Z,7.60
2023-04-09T18:14:42.686Z,9.05
2023-04-09T18:17:09.096Z,8.80
2023-04-09T18:19:35.538Z,9.43
2023-04-09T18:22:02.005Z,8.18
2023-04-09T18:24:28.430Z,7.00
2023-04-09T18:26:54.844Z,9.57
2023-04-09T18:29:21.266Z,9.40
2023-04-09T18:31:47.717Z,8.68
2023-04-09T18:34:14.138Z,9.45
2023-04-09T18:36:40.529Z,10.32
2023-04-09T18:39:06.966Z,9.43
2023-04-09T18:41:33.380Z,10.32
2023-04-09T18:43:59.841Z,10.68
2023-04-09T18:46:26.803Z,11.75
2023-04-09T18:48:53.442Z,11.80
2023-04-09T18:51:20.858Z,11.82
2023-04-09T18:53:47.531Z,11.20
2023-04-09T18:56:13.950Z,13.75
2023-04-09T18:58:40.352Z,15.30
2023-04-09T19:01:06.790Z,15.95
2023-04-09T19:03:33.409Z,16.70
2023-04-09T19:06:00.110Z,16.13
2023-04-09T19:08:26.570Z,20.30
2023-04-09T19:10:53.017Z,20.75
2023-04-09T19:13:19.409Z,20.70
2023-04-09T19:15:45.891Z,22.90
2023-04-09T19:18:12.385Z,19.20
2023-04-09T19:20:38.871Z,20.05
2023-04-09T19:23:05.298Z,17.35
2023-04-09T19:25:31.682Z,19.50
2023-04-09T19:27:58.114Z,18.15
2023-04-09T19:30:24.558Z,15.32
2023-04-09T19:32:51.080Z,13.85
2023-04-09T19:35:17.522Z,17.27
2023-04-09T19:37:43.990Z,15.57
2023-04-09T19:40:10.420Z,18.00
2023-04-09T19:42:36.876Z,16.55
2023-04-09T19:45:03.422Z,16.95
2023-04-09T19:47:30.000Z,19.17
2023-04-09T19:49:56.457Z,19.25
2023-04-09T19:52:22.847Z,23.30
2023-04-09T19:54:49.304Z,24.83
2023-04-09T19:57:15.715Z,24.42
2023-04-09T19:59:42.133Z,23.60
2023-04-09T20:02:08.864Z,22.13
2023-04-09T20:04:35.341Z,25.40
2023-04-09T20:07:01.758Z,25.17
2023-04-09T20:09:28.233Z,26.45
2023-04-09T20:11:54.708Z,26.48
2023-04-09T20:14:21.161Z,26.48
2023-04-09T20:16:47.706Z,29.08
2023-04-09T20:19:14.343Z,30.13
2023-04-09T20:21:40.770Z,28.42
2023-04-09T20:24:07.234Z,29.88
2023-04-09T20:26:33.661Z,31.33
2023-04-09T20:29:00.152Z,33.78
2023-04-09T20:31:26.654Z,33.85
2023-04-09T20:33:53.064Z,30.83
2023-04-09T20:36:19.518Z,31.63
2023-04-09T20:38:46.049Z,38.75
2023-04-09T20:41:12.469Z,38.95
2023-04-09T20:43:38.892Z,41.75
2023-04-09T20:46:06.577Z,39.58
2023-04-09T20:48:33.032Z,42.97
2023-04-09T20:50:59.417Z,44.22
2023-04-09T20:53:25.870Z,38.95
2023-04-09T20:55:52.358Z,38.45
2023-04-09T20:58:18.756Z,37.33
2023-04-09T21:00:45.145Z,40.25
2023-04-09T21:03:11.688Z,41.50
2023-04-09T21:05:38.221Z,40.92
2023-04-09T21:08:04.719Z,39.35
2023-04-09T21:10:31.184Z,42.72
2023-04-09T21:12:57.575Z,49.15
2023-04-09T21:15:23.954Z,47.17
2023-04-09T21:17:50.428Z,45.50
2023-04-09T21:20:16.927Z,46.45
2023-04-09T21:22:43.364Z,38.70
2023-04-09T21:25:09.764Z,39.50
2023-04-09T21:27:36.224Z,36.35
2023-04-09T21:30:02.677Z,42.70
2023-04-09T21:32:29.175Z,39.60
2023-04-09T21:34:55.555Z,44.10
2023-04-09T21:37:21.946Z,37.38
2023-04-09T21:39:48.364Z,36.33
2023-04-09T21:42:14.801Z,39.38
2023-04-09T21:44:41.278Z,33.97
2023-04-09T21:47:07.689Z,32.70
2023-04-09T21:49:34.081Z,34.20
2023-04-09T21:52:00.481Z,32.05
2023-04-09T21:54:26.939Z,35.08
2023-04-09T21:56:53.403Z,31.55
2023-04-09T21:59:19.846Z,32.85
2023-04-09T22:01:48.061Z,30.35
2023-04-09T22:04:15.901Z,30.65
2023-04-09T22:06:42.373Z,37.97
2023-04-09T22:09:08.814Z,32.70
2023-04-09T22:11:35.199Z,29.42
2023-04-09T22:14:01.649Z,31.98
2023-04-09T22:16:28.233Z,30.83
2023-04-09T22:18:55.155Z,30.52
2023-04-09T22:21:21.847Z,28.38
2023-04-09T22:23:48.236Z,30.42
2023-04-09T22:26:14.687Z,27.75
2023-04-09T22:28:41.093Z,29.02
2023-04-09T22:31:07.501Z,30.20
2023-04-09T22:33:33.917Z,30.45
2023-04-09T22:36:00.423Z,28.52
2023-04-09T22:38:26.848Z,31.60
2023-04-09T22:40:53.230Z,28.10
2023-04-09T22:43:19.665Z,27.52
2023-04-09T22:45:46.159Z,25.67
2023-04-09T22:48:12.595Z,29.05
2023-04-09T22:50:38.983Z,25.90
2023-04-09T22:53:05.429Z,26.52
2023-04-09T22:55:31.879Z,27.95
2023-04-09T22:57:58.272Z,26.60
2023-04-09T23:00:24.735Z,29.05
2023-04-09T23:02:51.332Z,27.17
2023-04-09T23:05:17.905Z,27.42
2023-04-09T23:07:44.325Z,29.95
2023-04-09T23:10:10.718Z,26.30
2023-04-09T23:12:37.093Z,32.35
2023-04-09T23:15:03.543Z,31.27
2023-04-09T23:17:29.989Z,35.28
2023-04-09T23:19:56.383Z,34.08
2023-04-09T23:22:22.758Z,32.78
2023-04-09T23:24:49.176Z,35.08
2023-04-09T23:27:15.628Z,32.42
2023-04-09T23:29:42.046Z,32.40
2023-04-09T23:32:08.447Z,30.75
2023-04-09T23:34:34.839Z,30.10
2023-04-09T23:37:01.269Z,31.52
2023-04-09T23:39:27.727Z,32.78
2023-04-09T23:41:54.141Z,33.70
2023-04-09T23:44:20.554Z,32.40
2023-04-09T23:46:46.958Z,32.00
2023-04-09T23:49:13.405Z,32.47
2023-04-09T23:51:39.839Z,31.95
2023-04-09T23:54:06.367Z,31.35
2023-04-09T23:56:32.780Z,34.13
2023-04-09T23:58:59.222Z,32.88
